createdAt,value
2017-05-16T00:00:08.243Z,0
2017-05-16T00:00:49.152Z,0
2017-05-16T00:01:30.046Z,0
2017-05-16T00:02:10.943Z,0
2017-05-16T00:02:51.836Z,0
2017-05-16T00:03:32.719Z,0
2017-05-16T00:04:13.607Z,0
2017-05-16T00:04:54.502Z,0
2017-05-16T00:05:35.392Z,0
2017-05-16T00:06:16.285Z,0
2017-05-16T00:06:57.177Z,0
2017-05-16T00:07:38.063Z,0
2017-05-16T00:08:18.954Z,0
2017-05-16T00:08:59.844Z,0
2017-05-16T00:09:40.754Z,0
2017-05-16T00:10:21.640Z,0
2017-05-16T00:11:02.529Z,0
2017-05-16T00:11:43.419Z,0
2017-05-16T00:12:24.320Z,0
2017-05-16T00:13:05.210Z,0
2017-05-16T00:13:46.109Z,0
2017-05-16T00:14:27.009Z,0
2017-05-16T00:15:07.893Z,0
2017-05-16T00:15:48.776Z,0
2017-05-16T00:16:29.672Z,0
2017-05-16T00:17:10.561Z,0
2017-05-16T00:17:51.459Z,0
2017-05-16T00:18:32.352Z,0
2017-05-16T00:19:13.255Z,0
2017-05-16T00:19:54.147Z,0
2017-05-16T00:20:35.044Z,0
2017-05-16T00:21:15.936Z,0
2017-05-16T00:21:56.828Z,0
2017-05-16T00:22:37.724Z,0
2017-05-16T00:23:18.606Z,0
2017-05-16T00:23:59.492Z,0
2017-05-16T00:24:40.375Z,0
2017-05-16T00:25:21.269Z,0
2017-05-16T00:26:02.174Z,0
2017-05-16T00:26:43.051Z,0
2017-05-16T00:27:23.924Z,0
2017-05-16T00:28:04.812Z,0
2017-05-16T00:28:45.749Z,0
2017-05-16T00:29:26.591Z,0
2017-05-16T00:30:07.467Z,0
2017-05-16T00:30:48.340Z,0
2017-05-16T00:31:29.224Z,0
2017-05-16T00:32:10.114Z,0
2017-05-16T00:32:51.016Z,0
2017-05-16T00:33:31.909Z,0
2017-05-16T00:34:12.796Z,0
2017-05-16T00:34:53.680Z,0
2017-05-16T00:35:34.565Z,0
2017-05-16T00:36:15.460Z,0
2017-05-16T00:36:56.336Z,0
2017-05-16T00:37:37.243Z,0
2017-05-16T00:38:18.135Z,0
2017-05-16T00:38:59.007Z,0
2017-05-16T00:39:39.945Z,0
2017-05-16T00:40:20.822Z,0
2017-05-16T00:41:01.707Z,0
2017-05-16T00:41:42.602Z,0
2017-05-16T00:42:23.496Z,0
2017-05-16T00:43:04.382Z,0
2017-05-16T00:43:45.269Z,0
2017-05-16T00:44:26.162Z,0
2017-05-16T00:45:07.039Z,0
2017-05-16T00:45:47.934Z,0
2017-05-16T00:46:28.815Z,0
2017-05-16T00:47:09.709Z,0
2017-05-16T00:47:50.598Z,0
2017-05-16T00:48:31.491Z,0
2017-05-16T00:49:12.384Z,0
2017-05-16T00:49:53.244Z,0
2017-05-16T00:50:34.122Z,0
2017-05-16T00:51:15.025Z,0
2017-05-16T00:51:55.916Z,0
2017-05-16T00:52:36.794Z,0
2017-05-16T00:53:17.690Z,0
2017-05-16T00:53:58.587Z,0
2017-05-16T00:54:39.482Z,0
2017-05-16T00:55:20.376Z,0
2017-05-16T00:56:01.265Z,0
2017-05-16T00:56:42.158Z,0
2017-05-16T00:57:23.056Z,0
2017-05-16T00:58:03.949Z,0
2017-05-16T00:58:44.850Z,0
2017-05-16T00:59:25.719Z,0
2017-05-16T01:00:06.609Z,0
2017-05-16T01:00:47.498Z,0
2017-05-16T01:01:28.402Z,0
2017-05-16T01:02:09.306Z,0
2017-05-16T01:02:50.209Z,0
2017-05-16T01:03:31.122Z,0
2017-05-16T01:04:12.027Z,0
2017-05-16T01:04:52.924Z,0
2017-05-16T01:05:33.806Z,0
2017-05-16T01:06:14.699Z,0
2017-05-16T01:06:55.647Z,0
2017-05-16T01:07:36.477Z,0
2017-05-16T01:08:17.359Z,0
2017-05-16T01:08:58.260Z,0
2017-05-16T01:09:39.147Z,0
2017-05-16T01:10:20.039Z,0
2017-05-16T01:11:00.937Z,0
2017-05-16T01:11:41.825Z,0
2017-05-16T01:12:22.756Z,0
2017-05-16T01:13:03.643Z,0
2017-05-16T01:13:44.522Z,0
2017-05-16T01:14:25.415Z,0
2017-05-16T01:15:06.309Z,0
2017-05-16T01:15:47.195Z,0
2017-05-16T01:16:28.083Z,0
2017-05-16T01:17:08.980Z,0
2017-05-16T01:17:49.874Z,0
2017-05-16T01:18:30.781Z,0
2017-05-16T01:19:11.682Z,0
2017-05-16T01:19:52.576Z,0
2017-05-16T01:20:33.481Z,0
2017-05-16T01:21:14.374Z,0
2017-05-16T01:21:55.300Z,0
2017-05-16T01:22:36.158Z,0
2017-05-16T01:23:17.096Z,0
2017-05-16T01:23:57.973Z,0
2017-05-16T01:24:38.860Z,0
2017-05-16T01:25:19.766Z,0
2017-05-16T01:26:00.646Z,0
2017-05-16T01:26:41.532Z,0
2017-05-16T01:27:22.448Z,0
2017-05-16T01:28:03.325Z,0
2017-05-16T01:28:44.204Z,0
2017-05-16T01:29:25.122Z,0
2017-05-16T01:30:06.014Z,0
2017-05-16T01:30:46.919Z,0
2017-05-16T01:31:27.824Z,0
2017-05-16T01:32:08.764Z,0
2017-05-16T01:32:49.650Z,0
2017-05-16T01:33:30.528Z,0
2017-05-16T01:34:11.410Z,0
2017-05-16T01:34:52.317Z,0
2017-05-16T01:35:33.207Z,0
2017-05-16T01:36:14.107Z,0
2017-05-16T01:36:54.990Z,0
2017-05-16T01:37:35.881Z,0
2017-05-16T01:38:16.782Z,0
2017-05-16T01:38:57.673Z,0
2017-05-16T01:39:38.563Z,0
2017-05-16T01:40:19.459Z,0
2017-05-16T01:41:00.347Z,0
2017-05-16T01:41:41.244Z,0
2017-05-16T01:42:22.134Z,0
2017-05-16T01:43:03.023Z,0
2017-05-16T01:43:43.901Z,0
2017-05-16T01:44:24.788Z,0
2017-05-16T01:45:05.672Z,0
2017-05-16T01:45:46.562Z,0
2017-05-16T01:46:27.445Z,0
2017-05-16T01:47:08.333Z,0
2017-05-16T01:47:49.219Z,0
2017-05-16T01:48:30.099Z,0
2017-05-16T01:49:11.003Z,0
2017-05-16T01:49:51.894Z,0
2017-05-16T01:50:32.766Z,0
2017-05-16T01:51:13.710Z,0
2017-05-16T01:51:54.589Z,0
2017-05-16T01:52:35.479Z,0
2017-05-16T01:53:16.377Z,0
2017-05-16T01:53:57.262Z,0
2017-05-16T01:54:38.148Z,0
2017-05-16T01:55:19.038Z,0
2017-05-16T01:55:59.924Z,0
2017-05-16T01:56:40.819Z,0
2017-05-16T01:57:21.712Z,0
2017-05-16T01:58:02.601Z,0
2017-05-16T01:58:43.543Z,0
2017-05-16T01:59:24.424Z,0
2017-05-16T02:00:05.323Z,0
2017-05-16T02:00:46.222Z,0
2017-05-16T02:01:27.110Z,0
2017-05-16T02:02:08.007Z,0
2017-05-16T02:02:48.882Z,0
2017-05-16T02:03:29.796Z,0
2017-05-16T02:04:10.679Z,0
2017-05-16T02:04:51.575Z,0
2017-05-16T02:05:32.464Z,0
2017-05-16T02:06:13.342Z,0
2017-05-16T02:06:54.240Z,0
2017-05-16T02:07:35.129Z,0
2017-05-16T02:08:16.029Z,0
2017-05-16T02:08:56.927Z,0
2017-05-16T02:09:37.813Z,0
2017-05-16T02:10:18.690Z,0
2017-05-16T02:10:59.591Z,0
2017-05-16T02:11:40.474Z,0
2017-05-16T02:12:21.362Z,0
2017-05-16T02:13:02.260Z,0
2017-05-16T02:13:43.151Z,0
2017-05-16T02:14:24.043Z,0
2017-05-16T02:15:04.934Z,0
2017-05-16T02:15:45.829Z,0
2017-05-16T02:16:26.707Z,0
2017-05-16T02:17:07.598Z,0
2017-05-16T02:17:48.482Z,0
2017-05-16T02:18:29.427Z,0
2017-05-16T02:19:10.269Z,0
2017-05-16T02:19:51.167Z,0
2017-05-16T02:20:32.056Z,0
2017-05-16T02:21:12.954Z,0
2017-05-16T02:21:53.854Z,0
2017-05-16T02:22:34.729Z,0
2017-05-16T02:23:15.623Z,0
2017-05-16T02:23:56.525Z,0
2017-05-16T02:24:37.407Z,0
2017-05-16T02:25:18.308Z,0
2017-05-16T02:25:59.228Z,0
2017-05-16T02:26:40.141Z,0
2017-05-16T02:27:21.057Z,0
2017-05-16T02:28:02.540Z,0
2017-05-16T02:28:42.936Z,0
2017-05-16T02:29:23.826Z,0
2017-05-16T02:30:04.713Z,0
2017-05-16T02:30:45.597Z,0
2017-05-16T02:31:26.486Z,4
2017-05-16T02:32:07.370Z,4
2017-05-16T02:32:48.255Z,4
2017-05-16T02:33:29.152Z,4
2017-05-16T02:34:10.077Z,4
2017-05-16T02:34:50.960Z,4
2017-05-16T02:35:31.838Z,0
2017-05-16T02:36:12.715Z,0
2017-05-16T02:36:53.614Z,4
2017-05-16T02:37:34.502Z,4
2017-05-16T02:38:15.387Z,4
2017-05-16T02:38:56.291Z,4
2017-05-16T02:39:37.178Z,4
2017-05-16T02:40:18.058Z,4
2017-05-16T02:40:58.940Z,4
2017-05-16T02:41:39.850Z,4
2017-05-16T02:42:20.735Z,8
2017-05-16T02:43:01.665Z,8
2017-05-16T02:43:42.531Z,4
2017-05-16T02:44:23.415Z,8
2017-05-16T02:45:04.316Z,8
2017-05-16T02:45:45.202Z,8
2017-05-16T02:46:26.104Z,8
2017-05-16T02:47:06.992Z,12
2017-05-16T02:47:47.883Z,8
2017-05-16T02:48:28.849Z,12
2017-05-16T02:49:09.683Z,12
2017-05-16T02:49:50.570Z,12
2017-05-16T02:50:31.464Z,16
2017-05-16T02:51:12.365Z,16
2017-05-16T02:51:53.257Z,16
2017-05-16T02:52:34.151Z,16
2017-05-16T02:53:15.047Z,16
2017-05-16T02:53:55.936Z,20
2017-05-16T02:54:36.845Z,20
2017-05-16T02:55:17.749Z,24
2017-05-16T02:55:58.691Z,28
2017-05-16T02:56:39.592Z,24
2017-05-16T02:57:20.487Z,28
2017-05-16T02:58:01.407Z,32
2017-05-16T02:58:42.313Z,36
2017-05-16T02:59:23.206Z,36
2017-05-16T03:00:04.095Z,40
2017-05-16T03:00:44.988Z,44
2017-05-16T03:01:25.877Z,44
2017-05-16T03:02:06.765Z,48
2017-05-16T03:02:47.669Z,52
2017-05-16T03:03:28.573Z,52
2017-05-16T03:04:09.467Z,60
2017-05-16T03:04:50.349Z,60
2017-05-16T03:05:31.231Z,64
2017-05-16T03:06:12.114Z,68
2017-05-16T03:06:53.026Z,72
2017-05-16T03:07:33.901Z,76
2017-05-16T03:08:14.813Z,80
2017-05-16T03:08:55.701Z,84
2017-05-16T03:09:36.585Z,88
2017-05-16T03:10:17.479Z,92
2017-05-16T03:10:58.373Z,96
2017-05-16T03:11:39.264Z,100
2017-05-16T03:12:20.168Z,108
2017-05-16T03:13:01.099Z,116
2017-05-16T03:13:42.012Z,120
2017-05-16T03:14:22.910Z,128
2017-05-16T03:15:03.824Z,136
2017-05-16T03:15:44.698Z,148
2017-05-16T03:16:25.582Z,152
2017-05-16T03:17:06.469Z,164
2017-05-16T03:17:47.354Z,176
2017-05-16T03:18:28.241Z,184
2017-05-16T03:19:09.136Z,196
2017-05-16T03:19:50.027Z,208
2017-05-16T03:20:30.912Z,220
2017-05-16T03:21:11.808Z,232
2017-05-16T03:21:52.704Z,244
2017-05-16T03:22:33.628Z,264
2017-05-16T03:23:14.504Z,280
2017-05-16T03:23:55.405Z,296
2017-05-16T03:24:36.288Z,320
2017-05-16T03:25:17.228Z,340
2017-05-16T03:25:58.067Z,364
2017-05-16T03:26:38.962Z,392
2017-05-16T03:27:19.854Z,420
2017-05-16T03:28:00.737Z,448
2017-05-16T03:28:41.629Z,476
2017-05-16T03:29:22.527Z,504
2017-05-16T03:30:03.409Z,540
2017-05-16T03:30:44.297Z,580
2017-05-16T03:31:25.198Z,612
2017-05-16T03:32:06.091Z,652
2017-05-16T03:32:46.981Z,696
2017-05-16T03:33:27.986Z,732
2017-05-16T03:34:08.876Z,772
2017-05-16T03:34:49.755Z,816
2017-05-16T03:35:30.650Z,864
2017-05-16T03:36:11.545Z,900
2017-05-16T03:36:52.436Z,940
2017-05-16T03:37:33.332Z,968
2017-05-16T03:38:14.244Z,1000
2017-05-16T03:38:55.130Z,1028
2017-05-16T03:39:36.035Z,1056
2017-05-16T03:40:16.924Z,1084
2017-05-16T03:40:57.818Z,1108
2017-05-16T03:41:38.709Z,1132
2017-05-16T03:42:19.597Z,1148
2017-05-16T03:43:00.498Z,1160
2017-05-16T03:43:41.381Z,1164
2017-05-16T03:44:22.262Z,1160
2017-05-16T03:45:03.160Z,1152
2017-05-16T03:45:44.042Z,1140
2017-05-16T03:46:24.934Z,1132
2017-05-16T03:47:05.822Z,1120
2017-05-16T03:47:46.708Z,1112
2017-05-16T03:48:27.601Z,1096
2017-05-16T03:49:08.504Z,1088
2017-05-16T03:49:49.396Z,1072
2017-05-16T03:50:30.287Z,1056
2017-05-16T03:51:11.181Z,1048
2017-05-16T03:51:52.065Z,1032
2017-05-16T03:52:32.954Z,1024
2017-05-16T03:53:13.857Z,1008
2017-05-16T03:53:54.729Z,1004
2017-05-16T03:54:35.623Z,1000
2017-05-16T03:55:16.513Z,1000
2017-05-16T03:55:57.402Z,1004
2017-05-16T03:56:38.332Z,1004
2017-05-16T03:57:19.239Z,1008
2017-05-16T03:58:00.146Z,1016
2017-05-16T03:58:41.028Z,1024
2017-05-16T03:59:21.919Z,1044
2017-05-16T04:00:02.810Z,1060
2017-05-16T04:00:43.707Z,1084
2017-05-16T04:01:24.590Z,1104
2017-05-16T04:02:05.472Z,1128
2017-05-16T04:02:46.367Z,1148
2017-05-16T04:03:27.262Z,1168
2017-05-16T04:04:08.153Z,1184
2017-05-16T04:04:49.036Z,1196
2017-05-16T04:05:29.911Z,1204
2017-05-16T04:06:10.801Z,1208
2017-05-16T04:06:51.689Z,1208
2017-05-16T04:07:32.574Z,1208
2017-05-16T04:08:13.473Z,1204
2017-05-16T04:08:54.353Z,1192
2017-05-16T04:09:35.246Z,1184
2017-05-16T04:10:16.144Z,1168
2017-05-16T04:10:57.075Z,1152
2017-05-16T04:11:37.976Z,1132
2017-05-16T04:12:18.843Z,1124
2017-05-16T04:12:59.734Z,1116
2017-05-16T04:13:40.623Z,1112
2017-05-16T04:14:21.517Z,1112
2017-05-16T04:15:02.478Z,1124
2017-05-16T04:15:43.369Z,1144
2017-05-16T04:16:24.272Z,1172
2017-05-16T04:17:05.178Z,1204
2017-05-16T04:17:46.076Z,1220
2017-05-16T04:18:26.979Z,1244
2017-05-16T04:19:07.896Z,1260
2017-05-16T04:19:48.786Z,1288
2017-05-16T04:20:29.668Z,1312
2017-05-16T04:21:10.564Z,1332
2017-05-16T04:21:51.452Z,1356
2017-05-16T04:22:32.344Z,1380
2017-05-16T04:23:13.237Z,1404
2017-05-16T04:23:54.128Z,1436
2017-05-16T04:24:35.018Z,1452
2017-05-16T04:25:15.913Z,1468
2017-05-16T04:25:56.805Z,1476
2017-05-16T04:26:37.700Z,1476
2017-05-16T04:27:18.607Z,1468
2017-05-16T04:27:59.493Z,1464
2017-05-16T04:28:40.401Z,1452
2017-05-16T04:29:21.292Z,1436
2017-05-16T04:30:02.183Z,1424
2017-05-16T04:30:43.078Z,1396
2017-05-16T04:31:23.980Z,1372
2017-05-16T04:32:04.857Z,1344
2017-05-16T04:32:45.745Z,1304
2017-05-16T04:33:26.629Z,1276
2017-05-16T04:34:07.518Z,1244
2017-05-16T04:34:48.403Z,1212
2017-05-16T04:35:29.297Z,1196
2017-05-16T04:36:10.178Z,1184
2017-05-16T04:36:51.058Z,1176
2017-05-16T04:37:31.956Z,1160
2017-05-16T04:38:12.848Z,1148
2017-05-16T04:38:53.737Z,1136
2017-05-16T04:39:34.624Z,1128
2017-05-16T04:40:15.521Z,1120
2017-05-16T04:40:56.404Z,1120
2017-05-16T04:41:37.288Z,1124
2017-05-16T04:42:18.180Z,1136
2017-05-16T04:42:59.074Z,1168
2017-05-16T04:43:39.974Z,1212
2017-05-16T04:46:19.379Z,1532
2017-05-16T04:47:00.314Z,1620
2017-05-16T04:47:41.193Z,1716
2017-05-16T04:48:22.121Z,1808
2017-05-16T04:49:03.020Z,1908
2017-05-16T04:49:43.902Z,1984
2017-05-16T04:50:24.786Z,2064
2017-05-16T04:51:05.673Z,2164
2017-05-16T04:51:46.560Z,2296
2017-05-16T04:52:27.442Z,2360
2017-05-16T04:53:08.322Z,2464
2017-05-16T04:53:49.222Z,2488
2017-05-16T04:54:30.113Z,2516
2017-05-16T04:55:10.998Z,2540
2017-05-16T04:55:51.891Z,2576
2017-05-16T04:56:32.766Z,2612
2017-05-16T04:57:13.644Z,2648
2017-05-16T04:57:54.576Z,2688
2017-05-16T04:58:35.429Z,2728
2017-05-16T04:59:16.311Z,2720
2017-05-16T04:59:57.209Z,2736
2017-05-16T05:00:38.097Z,2772
2017-05-16T05:01:19.068Z,2848
2017-05-16T05:01:59.969Z,3004
2017-05-16T05:02:40.850Z,3176
2017-05-16T05:03:21.746Z,3412
2017-05-16T05:04:02.633Z,3516
2017-05-16T05:04:43.566Z,3600
2017-05-16T05:05:24.461Z,3696
2017-05-16T05:06:05.341Z,3752
2017-05-16T05:06:46.229Z,3800
2017-05-16T05:07:27.114Z,3856
2017-05-16T05:08:08.014Z,3840
2017-05-16T05:08:48.896Z,3760
2017-05-16T05:09:29.846Z,3612
2017-05-16T05:10:10.743Z,3512
2017-05-16T05:10:51.595Z,3456
2017-05-16T05:11:32.496Z,3412
2017-05-16T05:12:13.388Z,3224
2017-05-16T05:12:54.290Z,3436
2017-05-16T05:13:35.181Z,3544
2017-05-16T05:14:16.080Z,3704
2017-05-16T05:14:56.979Z,3696
2017-05-16T05:15:37.875Z,3708
2017-05-16T05:16:18.761Z,3704
2017-05-16T05:16:59.651Z,3680
2017-05-16T05:17:40.540Z,3632
2017-05-16T05:18:21.436Z,3624
2017-05-16T05:19:02.321Z,3596
2017-05-16T05:19:43.228Z,3596
2017-05-16T05:20:24.110Z,3576
2017-05-16T05:21:05.003Z,3580
2017-05-16T05:21:45.901Z,3696
2017-05-16T05:22:26.794Z,3628
2017-05-16T05:23:07.683Z,3740
2017-05-16T05:23:48.577Z,3772
2017-05-16T05:24:29.471Z,3832
2017-05-16T05:25:10.374Z,3848
2017-05-16T05:25:51.251Z,3912
2017-05-16T05:26:32.138Z,4096
2017-05-16T05:27:13.038Z,4348
2017-05-16T05:27:53.947Z,4532
2017-05-16T05:28:34.811Z,4756
2017-05-16T05:29:15.717Z,4964
2017-05-16T05:29:56.606Z,5260
2017-05-16T05:30:37.548Z,5600
2017-05-16T05:31:18.548Z,6024
2017-05-16T05:31:59.481Z,6424
2017-05-16T05:32:40.446Z,6616
2017-05-16T05:33:21.360Z,6612
2017-05-16T05:34:02.260Z,6696
2017-05-16T05:34:43.129Z,6424
2017-05-16T05:35:24.002Z,6268
2017-05-16T05:36:04.913Z,6172
2017-05-16T05:36:45.799Z,6152
2017-05-16T05:37:26.687Z,6224
2017-05-16T05:38:08.131Z,6096
2017-05-16T05:38:49.031Z,6072
2017-05-16T05:39:29.930Z,6444
2017-05-16T05:40:10.839Z,6016
2017-05-16T05:40:51.753Z,5852
2017-05-16T05:41:32.640Z,5916
2017-05-16T05:42:13.557Z,5928
2017-05-16T05:42:54.423Z,6108
2017-05-16T05:43:35.330Z,6452
2017-05-16T05:44:16.250Z,6864
2017-05-16T05:44:57.151Z,7324
2017-05-16T05:45:38.067Z,7736
2017-05-16T05:46:18.987Z,8092
2017-05-16T05:46:59.891Z,8228
2017-05-16T05:47:40.775Z,8416
2017-05-16T05:48:21.666Z,8416
2017-05-16T05:49:02.561Z,8440
2017-05-16T05:49:43.444Z,9080
2017-05-16T05:50:24.334Z,8000
2017-05-16T05:51:05.239Z,7832
2017-05-16T05:51:46.174Z,7896
2017-05-16T05:52:27.066Z,8212
2017-05-16T05:53:07.973Z,8140
2017-05-16T05:53:48.915Z,7988
2017-05-16T05:54:29.818Z,8000
2017-05-16T05:55:10.731Z,7992
2017-05-16T05:55:51.610Z,7496
2017-05-16T05:56:32.562Z,7508
2017-05-16T05:57:13.539Z,7348
2017-05-16T05:57:54.476Z,7240
2017-05-16T05:58:35.397Z,7236
2017-05-16T05:59:16.294Z,7172
2017-05-16T05:59:57.177Z,7032
2017-05-16T06:00:38.068Z,6872
2017-05-16T06:01:18.987Z,6808
2017-05-16T06:01:59.903Z,6772
2017-05-16T06:03:53.496Z,6812
2017-05-16T06:04:34.389Z,6864
2017-05-16T06:05:15.309Z,6904
2017-05-16T06:05:56.152Z,6980
2017-05-16T06:06:37.036Z,7076
2017-05-16T06:07:17.965Z,7188
2017-05-16T06:07:58.829Z,7220
2017-05-16T06:08:39.731Z,7120
2017-05-16T06:09:20.640Z,7028
2017-05-16T06:10:01.541Z,7024
2017-05-16T06:10:42.431Z,7088
2017-05-16T06:11:23.316Z,7232
2017-05-16T06:12:04.231Z,7392
2017-05-16T06:12:45.143Z,7556
2017-05-16T06:13:26.061Z,7776
2017-05-16T06:14:06.948Z,7944
2017-05-16T06:14:47.827Z,8040
2017-05-16T06:15:28.725Z,8084
2017-05-16T06:16:09.614Z,8040
2017-05-16T06:16:50.495Z,7916
2017-05-16T06:17:31.408Z,7780
2017-05-16T06:18:12.337Z,8068
2017-05-16T06:18:53.230Z,8192
2017-05-16T06:19:34.146Z,8284
2017-05-16T06:20:15.094Z,7824
2017-05-16T06:20:55.955Z,8080
2017-05-16T06:21:36.866Z,8784
2017-05-16T06:22:17.790Z,8500
2017-05-16T06:22:58.656Z,8628
2017-05-16T06:23:39.551Z,9100
2017-05-16T06:24:20.436Z,9552
2017-05-16T06:25:01.316Z,9604
2017-05-16T06:25:42.225Z,8920
2017-05-16T06:26:23.121Z,8760
2017-05-16T06:27:04.022Z,8724
2017-05-16T06:27:44.925Z,9004
2017-05-16T06:28:25.833Z,9184
2017-05-16T06:29:06.767Z,9708
2017-05-16T06:29:47.698Z,10236
2017-05-16T06:30:28.590Z,10380
2017-05-16T06:31:09.499Z,10744
2017-05-16T06:31:50.415Z,11212
2017-05-16T06:32:31.317Z,10696
2017-05-16T06:33:12.210Z,10188
2017-05-16T06:33:53.115Z,10004
2017-05-16T06:35:47.720Z,11412
2017-05-16T06:36:28.624Z,11500
2017-05-16T06:37:09.527Z,11716
2017-05-16T06:37:50.419Z,12176
2017-05-16T06:38:31.328Z,12204
2017-05-16T06:39:12.233Z,12288
2017-05-16T06:39:53.123Z,12068
2017-05-16T06:40:34.030Z,12004
2017-05-16T06:41:14.937Z,11932
2017-05-16T06:41:55.867Z,11872
2017-05-16T06:42:36.747Z,11692
2017-05-16T06:43:17.666Z,11472
2017-05-16T06:43:58.546Z,11336
2017-05-16T06:44:39.539Z,11216
2017-05-16T06:45:20.442Z,11128
2017-05-16T06:46:01.342Z,11048
2017-05-16T06:46:42.246Z,11060
2017-05-16T06:47:23.142Z,11144
2017-05-16T06:48:04.054Z,11148
2017-05-16T06:48:44.945Z,11204
2017-05-16T06:49:25.824Z,11188
2017-05-16T06:50:06.711Z,11244
2017-05-16T06:50:47.619Z,11268
2017-05-16T06:51:28.509Z,11236
2017-05-16T06:52:09.382Z,11232
2017-05-16T06:52:50.288Z,11272
2017-05-16T06:53:31.172Z,11236
2017-05-16T06:54:12.061Z,11236
2017-05-16T06:56:10.948Z,11464
2017-05-16T06:56:51.854Z,11584
2017-05-16T06:57:32.753Z,11676
2017-05-16T06:58:13.622Z,11752
2017-05-16T06:58:54.526Z,11804
2017-05-16T06:59:35.410Z,11884
2017-05-16T07:00:16.305Z,11856
2017-05-16T07:00:57.227Z,11812
2017-05-16T07:01:38.109Z,11812
2017-05-16T07:02:19.011Z,11804
2017-05-16T07:02:59.910Z,11772
2017-05-16T07:03:40.814Z,11708
2017-05-16T07:04:21.718Z,11788
2017-05-16T07:05:02.596Z,11804
2017-05-16T07:05:43.505Z,11892
2017-05-16T07:06:24.410Z,11784
2017-05-16T07:07:05.319Z,11816
2017-05-16T07:07:46.216Z,11624
2017-05-16T07:08:27.112Z,11636
2017-05-16T07:09:08.056Z,11572
2017-05-16T07:09:48.910Z,11684
2017-05-16T07:10:29.836Z,11572
2017-05-16T07:11:10.716Z,11684
2017-05-16T07:11:51.604Z,12068
2017-05-16T07:12:32.507Z,12140
2017-05-16T07:13:13.396Z,12384
2017-05-16T07:13:54.296Z,12836
2017-05-16T07:14:35.199Z,13716
2017-05-16T07:15:16.110Z,13932
2017-05-16T07:15:57.024Z,13772
2017-05-16T07:16:37.903Z,13724
2017-05-16T07:17:18.799Z,14072
2017-05-16T07:17:59.691Z,14484
2017-05-16T07:18:40.575Z,13812
2017-05-16T07:19:21.486Z,13308
2017-05-16T07:20:02.388Z,12804
2017-05-16T07:20:43.294Z,12792
2017-05-16T07:21:24.190Z,12720
2017-05-16T07:22:05.094Z,12512
2017-05-16T07:22:45.991Z,12248
2017-05-16T07:23:26.885Z,12196
2017-05-16T07:24:07.798Z,12404
2017-05-16T07:24:48.681Z,12396
2017-05-16T07:25:29.580Z,12688
2017-05-16T07:26:10.474Z,12920
2017-05-16T07:26:51.349Z,13508
2017-05-16T07:27:32.241Z,14188
2017-05-16T07:28:13.145Z,14332
2017-05-16T07:28:54.041Z,14404
2017-05-16T07:29:34.936Z,14060
2017-05-16T07:30:15.840Z,14244
2017-05-16T07:30:56.729Z,13732
2017-05-16T07:31:37.622Z,13896
2017-05-16T07:32:18.522Z,15076
2017-05-16T07:32:59.422Z,17472
2017-05-16T07:33:40.317Z,17472
2017-05-16T07:34:21.202Z,18080
2017-05-16T07:35:02.106Z,18176
2017-05-16T07:35:43.029Z,18080
2017-05-16T07:36:23.917Z,18176
2017-05-16T07:37:04.812Z,19008
2017-05-16T07:37:45.694Z,19488
2017-05-16T07:38:26.586Z,20160
2017-05-16T07:39:07.487Z,21280
2017-05-16T07:39:48.379Z,21824
2017-05-16T07:40:29.285Z,19968
2017-05-16T07:41:10.178Z,21856
2017-05-16T07:41:51.061Z,21984
2017-05-16T07:42:31.959Z,20640
2017-05-16T07:43:12.864Z,19808
2017-05-16T07:43:53.753Z,19328
2017-05-16T07:44:34.654Z,18496
2017-05-16T07:45:15.543Z,18080
2017-05-16T07:45:56.447Z,18400
2017-05-16T07:46:37.367Z,19456
2017-05-16T07:47:18.233Z,21120
2017-05-16T07:47:59.124Z,21568
2017-05-16T07:48:40.033Z,21600
2017-05-16T07:49:20.939Z,21984
2017-05-16T07:50:01.850Z,21792
2017-05-16T07:50:42.750Z,21696
2017-05-16T07:51:23.653Z,21824
2017-05-16T07:52:04.558Z,21952
2017-05-16T07:52:45.459Z,22048
2017-05-16T07:53:26.363Z,22144
2017-05-16T07:54:07.285Z,22112
2017-05-16T07:54:48.152Z,21760
2017-05-16T07:55:29.062Z,21440
2017-05-16T07:56:09.965Z,21152
2017-05-16T07:56:50.857Z,20992
2017-05-16T07:57:31.763Z,20800
2017-05-16T07:58:12.662Z,20544
2017-05-16T07:58:53.572Z,20640
2017-05-16T07:59:34.475Z,20928
2017-05-16T08:00:15.374Z,21376
2017-05-16T08:00:56.275Z,21984
2017-05-16T08:01:37.161Z,22624
2017-05-16T08:02:18.056Z,23360
2017-05-16T08:02:58.961Z,24448
2017-05-16T08:03:39.858Z,24640
2017-05-16T08:04:20.764Z,23744
2017-05-16T08:05:01.672Z,22560
2017-05-16T08:05:42.574Z,21248
2017-05-16T08:06:23.476Z,22272
2017-05-16T08:07:04.392Z,24256
2017-05-16T08:07:45.299Z,28576
2017-05-16T08:08:26.212Z,30912
2017-05-16T08:09:07.119Z,31136
2017-05-16T08:09:48.029Z,27552
2017-05-16T08:10:28.930Z,27776
2017-05-16T08:11:09.842Z,29920
2017-05-16T08:11:50.739Z,33152
2017-05-16T08:12:31.645Z,33056
2017-05-16T08:13:12.543Z,33216
2017-05-16T08:13:53.437Z,32352
2017-05-16T08:14:34.369Z,30496
2017-05-16T08:15:15.264Z,27136
2017-05-16T08:15:56.222Z,26880
2017-05-16T08:16:37.078Z,27520
2017-05-16T08:17:17.981Z,27968
2017-05-16T08:17:58.874Z,27904
2017-05-16T08:18:39.795Z,26784
2017-05-16T08:19:20.710Z,24576
2017-05-16T08:20:01.612Z,22592
2017-05-16T08:20:42.504Z,21344
2017-05-16T08:21:23.403Z,19936
2017-05-16T08:22:04.331Z,18496
2017-05-16T08:22:45.216Z,17216
2017-05-16T08:23:26.124Z,16192
2017-05-16T08:24:07.005Z,15376
2017-05-16T08:24:47.928Z,15112
2017-05-16T08:25:28.825Z,15008
2017-05-16T08:26:09.768Z,15032
2017-05-16T08:26:50.672Z,15032
2017-05-16T08:27:31.578Z,14968
2017-05-16T08:28:12.476Z,14856
2017-05-16T08:28:53.384Z,15100
2017-05-16T08:29:34.278Z,16000
2017-05-16T08:30:15.192Z,16768
2017-05-16T08:30:56.082Z,17728
2017-05-16T08:31:36.968Z,18272
2017-05-16T08:32:17.872Z,18784
2017-05-16T08:32:58.776Z,19488
2017-05-16T08:33:39.674Z,19936
2017-05-16T08:34:20.577Z,20192
2017-05-16T08:35:01.475Z,19904
2017-05-16T08:35:42.376Z,19360
2017-05-16T08:36:23.276Z,20512
2017-05-16T08:37:04.187Z,21984
2017-05-16T08:37:45.077Z,23456
2017-05-16T08:38:25.971Z,25536
2017-05-16T08:39:06.875Z,27296
2017-05-16T08:39:47.763Z,28128
2017-05-16T08:40:28.687Z,30240
2017-05-16T08:41:09.575Z,31840
2017-05-16T08:41:50.473Z,32704
2017-05-16T08:42:31.382Z,32832
2017-05-16T08:43:12.274Z,30720
2017-05-16T08:43:53.171Z,28608
2017-05-16T08:44:34.064Z,25856
2017-05-16T08:45:14.971Z,23680
2017-05-16T08:45:55.877Z,24128
2017-05-16T08:46:36.781Z,23584
2017-05-16T08:47:17.688Z,23232
2017-05-16T08:47:58.587Z,23200
2017-05-16T08:48:39.481Z,23168
2017-05-16T08:49:20.374Z,22240
2017-05-16T08:50:01.253Z,21664
2017-05-16T08:50:42.165Z,20512
2017-05-16T08:51:23.088Z,19520
2017-05-16T08:52:03.955Z,18496
2017-05-16T08:52:44.866Z,17568
2017-05-16T08:53:25.745Z,17184
2017-05-16T08:54:06.657Z,17056
2017-05-16T08:54:47.553Z,16864
2017-05-16T08:55:28.443Z,16544
2017-05-16T08:56:09.361Z,16512
2017-05-16T08:56:50.241Z,16480
2017-05-16T08:57:31.159Z,16544
2017-05-16T08:58:12.050Z,16576
2017-05-16T08:58:52.965Z,16576
2017-05-16T08:59:33.846Z,16608
2017-05-16T09:00:14.744Z,16544
2017-05-16T09:00:55.658Z,16352
2017-05-16T09:01:36.545Z,16416
2017-05-16T09:02:17.460Z,16608
2017-05-16T09:02:58.355Z,16704
2017-05-16T09:03:39.270Z,16768
2017-05-16T09:04:20.174Z,16832
2017-05-16T09:05:01.084Z,16992
2017-05-16T09:05:41.984Z,16928
2017-05-16T09:06:22.930Z,17120
2017-05-16T09:07:03.817Z,17344
2017-05-16T09:07:44.722Z,17472
2017-05-16T09:08:25.625Z,17600
2017-05-16T09:09:06.533Z,17568
2017-05-16T09:09:47.443Z,17440
2017-05-16T09:10:28.334Z,17248
2017-05-16T09:11:09.238Z,16992
2017-05-16T09:11:50.135Z,16896
2017-05-16T09:12:31.038Z,16576
2017-05-16T09:13:11.953Z,15968
2017-05-16T09:14:50.346Z,15012
2017-05-16T09:15:31.256Z,14928
2017-05-16T09:16:12.165Z,14896
2017-05-16T09:16:53.070Z,14744
2017-05-16T09:17:33.965Z,14492
2017-05-16T09:18:14.873Z,14256
2017-05-16T09:18:55.819Z,14196
2017-05-16T09:19:36.679Z,14212
2017-05-16T09:20:17.600Z,14236
2017-05-16T09:20:58.487Z,14596
2017-05-16T09:21:39.400Z,14752
2017-05-16T09:22:20.290Z,14992
2017-05-16T09:23:01.183Z,15172
2017-05-16T09:23:42.083Z,14752
2017-05-16T09:24:23.013Z,14252